^^
Grace C. Lehan Memorial Weather Station Historical Data
Daily Summary for June 14, 2021 Units:  English    Metric   Both
Daily Weekly Monthly Yearly
  High: Low: Average:
Temperature: 43.1 °F 34.6 °F 38.1 °F
Dew Point: 35.6 °F 28.5 °F 32.5 °F
Humidity: 90% 73% 80%
Wind Speed: 2.2mph 0mph 0.2mph
Wind Gust: 9mph - -
Wind- - SSW
Pressure: 29.89 in 29.77 in -
Precipitation: 0.00 in    
 
 
Tabular Data for June 14, 2021
Time Temperature Dew Point Pressure Wind Wind Speed Wind Gust Humidity Rainfall Rate (Hourly) solar
00:04 35.3 °F 28.8 °F 29.86 in Calm     77% 0.00 in 0 W/m2
00:09 35.3 °F 28.8 °F 29.86 in Calm     77% 0.00 in 0 W/m2
00:14 35.3 °F 28.8 °F 29.86 in Calm     77% 0.00 in 0 W/m2
00:19 35.3 °F 28.8 °F 29.85 in Calm     77% 0.00 in 0 W/m2
00:24 35.2 °F 28.7 °F 29.85 in Calm     77% 0.00 in 0 W/m2
00:29 35.1 °F 28.6 °F 29.85 in Calm     77% 0.00 in 0 W/m2
00:34 35 °F 28.5 °F 29.85 in Calm     77% 0.00 in 0 W/m2
00:39 34.9 °F 28.6 °F 29.85 in Calm     77.7% 0.00 in 0 W/m2
00:44 34.8 °F 28.7 °F 29.85 in Calm     78% 0.00 in 0 W/m2
00:49 34.8 °F 28.7 °F 29.85 in Calm     78% 0.00 in 0 W/m2
00:54 34.8 °F 28.7 °F 29.85 in Calm     78% 0.00 in 0 W/m2
00:59 34.8 °F 28.6 °F 29.85 in Calm     78% 0.00 in 0 W/m2
01:04 34.7 °F 28.6 °F 29.85 in Calm     78% 0.00 in 0 W/m2
01:09 34.7 °F 28.6 °F 29.85 in Calm     78% 0.00 in 0 W/m2
01:13 34.7 °F 28.6 °F 29.85 in Calm     78% 0.00 in 0 W/m2
01:19 34.6 °F 28.8 °F 29.85 in Calm     79% 0.00 in 0 W/m2
01:24 34.6 °F 28.8 °F 29.85 in Calm     79% 0.00 in 0 W/m2
01:29 34.6 °F 28.8 °F 29.85 in Calm     79% 0.00 in 0 W/m2
01:34 34.7 °F 28.8 °F 29.85 in Calm     79% 0.00 in 0 W/m2
01:39 34.8 °F 28.9 °F 29.85 in Calm   1 mph 79% 0.00 in 0 W/m2
01:44 34.9 °F 29 °F 29.85 in Calm   1 mph 78.9% 0.00 in 0 W/m2
01:49 35 °F 28.8 °F 29.85 in Calm   1 mph 78% 0.00 in 0 W/m2
01:54 35 °F 28.9 °F 29.85 in Calm   1 mph 78% 0.00 in 0 W/m2
01:59 35 °F 28.9 °F 29.85 in Calm   1 mph 78% 0.00 in 0 W/m2
02:04 35 °F 28.9 °F 29.86 in Calm   1 mph 78% 0.00 in 0 W/m2
02:09 34.9 °F 28.8 °F 29.85 in Calm     78% 0.00 in 0 W/m2
02:14 34.9 °F 28.7 °F 29.85 in SW 0.1 mph 2 mph 78% 0.00 in 0 W/m2
02:19 34.8 °F 28.7 °F 29.85 in Calm   2 mph 78% 0.00 in 0 W/m2
02:24 34.8 °F 28.9 °F 29.85 in Calm   2 mph 78.9% 0.00 in 0 W/m2
02:29 34.7 °F 28.9 °F 29.85 in Calm   2 mph 79% 0.00 in 0 W/m2
02:34 34.6 °F 28.8 °F 29.85 in Calm   2 mph 79% 0.00 in 0 W/m2
02:39 34.6 °F 28.8 °F 29.85 in Calm     79% 0.00 in 0 W/m2
02:44 34.6 °F 28.8 °F 29.84 in Calm     79% 0.00 in 0 W/m2
02:49 34.6 °F 28.8 °F 29.84 in Calm     79% 0.00 in 0 W/m2
02:54 34.7 °F 28.9 °F 29.84 in Calm     79% 0.00 in 0 W/m2
02:59 34.7 °F 28.9 °F 29.84 in Calm     79% 0.00 in 0 W/m2
03:04 34.8 °F 29 °F 29.83 in Calm     79% 0.00 in 0 W/m2
03:09 34.9 °F 29 °F 29.83 in Calm     79% 0.00 in 0 W/m2
03:14 35 °F 29.2 °F 29.83 in Calm   1 mph 79% 0.00 in 0 W/m2
03:19 35.1 °F 29.3 °F 29.83 in Calm   1 mph 79% 0.00 in 0 W/m2
03:24 35.2 °F 29.4 °F 29.83 in Calm   1 mph 79% 0.00 in 0 W/m2
03:29 35.3 °F 29.3 °F 29.83 in Calm   1 mph 78.5% 0.00 in 0 W/m2
03:34 35.4 °F 29.2 °F 29.83 in Calm   1 mph 78% 0.00 in 0 W/m2
03:39 35.5 °F 29.3 °F 29.82 in Calm     78% 0.00 in 0 W/m2
03:44 35.5 °F 29.3 °F 29.82 in Calm     78% 0.00 in 0 W/m2
03:49 35.5 °F 29.3 °F 29.82 in Calm     78% 0.00 in 0 W/m2
03:54 35.5 °F 29.5 °F 29.82 in Calm     78.4% 0.00 in 0 W/m2
03:59 35.5 °F 29.6 °F 29.82 in Calm     78.9% 0.00 in 0 W/m2
04:04 35.6 °F 29.7 °F 29.81 in Calm     79% 0.00 in 0 W/m2
04:09 35.6 °F 29.7 °F 29.81 in Calm     79% 0.00 in 0 W/m2
04:14 35.6 °F 29.7 °F 29.81 in Calm     79% 0.00 in 0 W/m2
04:19 35.6 °F 29.7 °F 29.81 in Calm     79% 0.00 in 0 W/m2
04:24 35.6 °F 29.7 °F 29.81 in Calm     79% 0.00 in 0 W/m2
04:29 35.6 °F 29.7 °F 29.81 in Calm     79% 0.00 in 0 W/m2
04:34 35.6 °F 29.7 °F 29.81 in Calm     79% 0.00 in 0 W/m2
04:39 35.6 °F 29.7 °F 29.81 in Calm     79% 0.00 in 0 W/m2
04:44 35.6 °F 29.7 °F 29.81 in Calm     79% 0.00 in 0 W/m2
04:49 35.6 °F 29.7 °F 29.81 in Calm     79% 0.00 in 0 W/m2
04:54 35.6 °F 29.7 °F 29.81 in Calm     79% 0.00 in 0 W/m2
04:59 35.6 °F 29.7 °F 29.81 in Calm     79% 0.00 in 0 W/m2
05:04 35.5 °F 29.7 °F 29.81 in Calm     79.1% 0.00 in 0 W/m2
05:09 35.5 °F 29.9 °F 29.81 in Calm     80% 0.00 in 0 W/m2
05:14 35.5 °F 29.9 °F 29.81 in Calm     80% 0.00 in 0 W/m2
05:19 35.4 °F 29.9 °F 29.81 in Calm     80% 0.00 in 0 W/m2
05:24 35.4 °F 29.9 °F 29.81 in Calm     80% 0.00 in 0 W/m2
05:29 35.4 °F 29.9 °F 29.81 in Calm     80% 0.00 in 0 W/m2
05:34 35.3 °F 29.8 °F 29.81 in Calm     80% 0.00 in 0 W/m2
05:39 35.3 °F 29.8 °F 29.81 in Calm     80% 0.00 in 0 W/m2
05:44 35.3 °F 29.7 °F 29.81 in Calm     80% 0.00 in 0 W/m2
05:49 35.2 °F 29.7 °F 29.82 in Calm     80% 0.00 in 0 W/m2
05:54 35.2 °F 29.7 °F 29.82 in Calm     80% 0.00 in 0 W/m2
05:59 35.2 °F 30 °F 29.82 in Calm     81% 0.00 in 0 W/m2
06:04 35.2 °F 30 °F 29.82 in Calm     81% 0.00 in 0 W/m2
06:09 35.2 °F 30 °F 29.82 in Calm     81% 0.00 in 0 W/m2
06:14 35.2 °F 30 °F 29.82 in Calm     81% 0.00 in 0 W/m2
06:19 35.2 °F 30 °F 29.83 in Calm     81% 0.00 in 0 W/m2
06:24 35.2 °F 30 °F 29.82 in Calm     81% 0.00 in 0 W/m2
06:29 35.1 °F 29.9 °F 29.83 in Calm     81% 0.00 in 0 W/m2
06:34 35.1 °F 29.9 °F 29.83 in Calm     81% 0.00 in 0 W/m2
06:39 35 °F 29.8 °F 29.83 in Calm     81% 0.00 in 0 W/m2
06:44 35 °F 29.8 °F 29.83 in Calm     81% 0.00 in 0 W/m2
06:49 35 °F 29.8 °F 29.83 in Calm     81% 0.00 in 0 W/m2
06:54 35.1 °F 29.9 °F 29.83 in Calm     81.3% 0.00 in 0 W/m2
06:59 35.1 °F 30.2 °F 29.83 in Calm     82% 0.00 in 0 W/m2
07:04 35.1 °F 30.2 °F 29.83 in Calm     82% 0.00 in 0 W/m2
07:09 35.2 °F 30.2 °F 29.83 in Calm     82% 0.00 in 0 W/m2
07:14 35.2 °F 30.3 °F 29.84 in Calm     82% 0.00 in 0 W/m2
07:19 35.2 °F 30.3 °F 29.84 in Calm     82% 0.00 in 0 W/m2
07:24 35.2 °F 30.3 °F 29.84 in Calm     82% 0.00 in 0 W/m2
07:29 35.2 °F 30.3 °F 29.85 in Calm     82% 0.00 in 5 W/m2
07:34 35.2 °F 30.3 °F 29.85 in Calm     82% 0.00 in 5 W/m2
07:39 35.2 °F 30.3 °F 29.85 in Calm     82% 0.00 in 7 W/m2
07:44 35.3 °F 30.4 °F 29.85 in Calm     82% 0.00 in 9 W/m2
07:49 35.3 °F 30.4 °F 29.85 in Calm     82% 0.00 in 9 W/m2
07:54 35.3 °F 30.4 °F 29.85 in Calm     82% 0.00 in 11 W/m2
07:59 35.3 °F 30.4 °F 29.85 in Calm     82% 0.00 in 12 W/m2
08:04 35.4 °F 30.5 °F 29.85 in Calm     82% 0.00 in 14 W/m2
08:09 35.5 °F 30.5 °F 29.85 in Calm     82% 0.00 in 16 W/m2
08:14 35.5 °F 30.6 °F 29.85 in Calm     82% 0.00 in 18 W/m2
08:19 35.6 °F 30.7 °F 29.85 in Calm     82.1% 0.00 in 23 W/m2
08:24 35.7 °F 31 °F 29.85 in Calm     82.8% 0.00 in 26 W/m2
08:29 35.8 °F 31.2 °F 29.85 in Calm     82.9% 0.00 in 32 W/m2
08:34 35.9 °F 31.2 °F 29.85 in Calm     82.8% 0.00 in 40 W/m2
08:39 36.1 °F 31.2 °F 29.85 in Calm     82.3% 0.00 in 47 W/m2
08:44 36.2 °F 31.2 °F 29.85 in Calm     82% 0.00 in 53 W/m2
08:49 36.3 °F 31.4 °F 29.85 in Calm     82.1% 0.00 in 56 W/m2
08:54 36.5 °F 31.9 °F 29.85 in Calm     83% 0.00 in 63 W/m2
08:59 36.7 °F 32 °F 29.85 in Calm     82.9% 0.00 in 67 W/m2
09:04 37 °F 32 °F 29.85 in Calm     82% 0.00 in 72 W/m2
09:09 37.2 °F 32.2 °F 29.85 in Calm     82% 0.00 in 76 W/m2
09:14 37.5 °F 32.5 °F 29.85 in Calm     82% 0.00 in 84 W/m2
09:19 37.7 °F 32.5 °F 29.85 in Calm     81.4% 0.00 in 93 W/m2
09:24 37.9 °F 32.6 °F 29.85 in Calm     81% 0.00 in 100 W/m2
09:29 38.1 °F 32.7 °F 29.85 in Calm     80.7% 0.00 in 104 W/m2
09:34 38.3 °F 32.7 °F 29.85 in Calm     80% 0.00 in 105 W/m2
09:39 38.4 °F 32.7 °F 29.84 in Calm     79.5% 0.00 in 107 W/m2
09:44 38.6 °F 32.7 °F 29.84 in Calm     79% 0.00 in 111 W/m2
09:49 38.8 °F 32.9 °F 29.85 in Calm     79% 0.00 in 114 W/m2
09:54 39 °F 32.8 °F 29.85 in Calm     78.4% 0.00 in 116 W/m2
09:59 39.1 °F 32.8 °F 29.84 in Calm     78% 0.00 in 114 W/m2
10:04 39.3 °F 33 °F 29.84 in Calm     78% 0.00 in 118 W/m2
10:09 39.6 °F 33.3 °F 29.84 in Calm     78% 0.00 in 127 W/m2
10:14 39.8 °F 33.3 °F 29.84 in Calm     77.4% 0.00 in 132 W/m2
10:19 40 °F 33.4 °F 29.84 in Calm     77% 0.00 in 139 W/m2
10:24 40.3 °F 33.5 °F 29.84 in Calm     76.5% 0.00 in 148 W/m2
10:29 40.5 °F 33.5 °F 29.84 in Calm     76% 0.00 in 148 W/m2
10:34 40.7 °F 33.7 °F 29.83 in Calm     76% 0.00 in 144 W/m2
10:39 40.8 °F 33.7 °F 29.83 in Calm     75.6% 0.00 in 141 W/m2
10:44 41 °F 33.7 °F 29.83 in Calm     75% 0.00 in 134 W/m2
10:49 41.1 °F 33.5 °F 29.83 in Calm     74% 0.00 in 132 W/m2
10:54 41.1 °F 33.5 °F 29.83 in Calm     74% 0.00 in 130 W/m2
10:59 41.1 °F 33.6 °F 29.83 in Calm   1 mph 74.5% 0.00 in 127 W/m2
11:04 41.1 °F 33.8 °F 29.83 in Calm   1 mph 75% 0.00 in 120 W/m2
11:09 41.2 °F 33.7 °F 29.83 in Calm     74.4% 0.00 in 120 W/m2
11:14 41.2 °F 33.5 °F 29.82 in SW 0.3 mph 3 mph 74% 0.00 in 120 W/m2
11:19 41.2 °F 33.6 °F 29.82 in Calm   3 mph 74% 0.00 in 120 W/m2
11:24 41.3 °F 33.7 °F 29.82 in Calm   3 mph 74% 0.00 in 123 W/m2
11:29 41.3 °F 33.5 °F 29.81 in Calm   3 mph 73.5% 0.00 in 128 W/m2
11:34 41.3 °F 33.5 °F 29.81 in Calm   3 mph 73.5% 0.00 in 130 W/m2
11:39 41.4 °F 33.9 °F 29.80 in Calm   1 mph 74.5% 0.00 in 130 W/m2
11:44 41.5 °F 33.9 °F 29.80 in SW 0.2 mph 2 mph 74.1% 0.00 in 141 W/m2
11:49 41.6 °F 34.2 °F 29.80 in SW 0.2 mph 3 mph 74.6% 0.00 in 149 W/m2
11:54 41.8 °F 34.1 °F 29.80 in Calm   3 mph 74% 0.00 in 153 W/m2
11:59 41.9 °F 34.2 °F 29.80 in Calm   3 mph 74% 0.00 in 155 W/m2
12:00 42 °F 34 °F 29.79 in Calm   3 mph 73% 0.00 in 153 W/m2
12:09 42.1 °F 34.3 °F 29.79 in SW 0.2 mph 2 mph 73.6% 0.00 in 176 W/m2
12:14 42.3 °F 34.6 °F 29.79 in Calm   2 mph 74.1% 0.00 in 176 W/m2
12:19 42.3 °F 34.6 °F 29.79 in Calm   2 mph 73.9% 0.00 in 178 W/m2
12:24 42.3 °F 34.8 °F 29.78 in Calm   2 mph 74.8% 0.00 in 181 W/m2
12:29 42.4 °F 35.1 °F 29.78 in Calm   2 mph 75.3% 0.00 in 179 W/m2
12:34 42.5 °F 35.1 °F 29.78 in WSW 0.5 mph 5 mph 74.8% 0.00 in 169 W/m2
12:39 42.5 °F 34.8 °F 29.78 in Calm   5 mph 74% 0.00 in 160 W/m2
12:44 42.5 °F 35 °F 29.78 in WSW 0.2 mph 5 mph 74.4% 0.00 in 160 W/m2
12:49 42.7 °F 35.1 °F 29.77 in Calm   5 mph 74.3% 0.00 in 160 W/m2
12:54 42.7 °F 34.9 °F 29.77 in WSW 0.1 mph 5 mph 73.6% 0.00 in 158 W/m2
12:59 42.7 °F 35 °F 29.77 in WSW 0.1 mph 5 mph 74% 0.00 in 160 W/m2
13:04 42.7 °F 34.8 °F 29.77 in Calm   5 mph 73.3% 0.00 in 160 W/m2
13:09 42.6 °F 34.9 °F 29.77 in Calm     74% 0.00 in 155 W/m2
13:14 42.6 °F 34.9 °F 29.77 in Calm     74% 0.00 in 144 W/m2
13:19 42.7 °F 35 °F 29.78 in Calm     74% 0.00 in 128 W/m2
13:24 42.7 °F 35 °F 29.78 in Calm     74% 0.00 in 123 W/m2
13:29 42.8 °F 35.1 °F 29.78 in Calm     74% 0.00 in 116 W/m2
13:34 42.7 °F 35 °F 29.78 in Calm     74% 0.00 in 111 W/m2
13:39 42.7 °F 35 °F 29.78 in Calm     74% 0.00 in 105 W/m2
13:44 42.8 °F 35.1 °F 29.78 in Calm     74% 0.00 in 100 W/m2
13:49 42.8 °F 35.2 °F 29.78 in Calm     74.3% 0.00 in 102 W/m2
13:54 42.9 °F 35.3 °F 29.78 in Calm     74.2% 0.00 in 118 W/m2
13:59 42.9 °F 35.1 °F 29.78 in Calm     73.8% 0.00 in 118 W/m2
14:04 42.9 °F 34.8 °F 29.78 in Calm     73% 0.00 in 107 W/m2
14:09 42.9 °F 34.9 °F 29.77 in WSW 0.4 mph 3 mph 73% 0.00 in 104 W/m2
14:14 43.1 °F 35 °F 29.78 in Calm   3 mph 73.1% 0.00 in 104 W/m2
14:19 43.1 °F 35.4 °F 29.78 in Calm   3 mph 73.9% 0.00 in 98 W/m2
14:24 43.1 °F 35.2 °F 29.78 in WSW 0.3 mph 3 mph 73.3% 0.00 in 98 W/m2
14:29 43 °F 35.3 °F 29.78 in WSW 0.8 mph 4 mph 74% 0.00 in 93 W/m2
14:34 43.1 °F 35.1 °F 29.78 in Calm   4 mph 73.3% 0.00 in 77 W/m2
14:39 43.1 °F 35.1 °F 29.78 in West 0.2 mph 3 mph 73% 0.00 in 62 W/m2
14:44 43.1 °F 35 °F 29.78 in NW 0.9 mph 4 mph 73% 0.00 in 49 W/m2
14:49 43 °F 35 °F 29.78 in Calm   4 mph 73% 0.00 in 54 W/m2
14:54 43 °F 35.2 °F 29.78 in NW 0.3 mph 4 mph 73.8% 0.00 in 62 W/m2
14:58 42.9 °F 35.2 °F 29.78 in NW 0.6 mph 4 mph 74% 0.00 in 62 W/m2
15:04 42.8 °F 35.1 °F 29.78 in Calm   4 mph 74% 0.00 in 49 W/m2
15:09 42.8 °F 35.3 °F 29.78 in Calm     74.6% 0.00 in 49 W/m2
15:14 42.8 °F 35.4 °F 29.78 in Calm     75% 0.00 in 44 W/m2
15:19 42.7 °F 35.3 °F 29.78 in NW 0.6 mph 4 mph 75% 0.00 in 44 W/m2
15:24 42.6 °F 35.2 °F 29.78 in NNW 2.1 mph 5 mph 75% 0.00 in 39 W/m2
15:29 42.4 °F 35.1 °F 29.79 in NNW 0.6 mph 5 mph 75% 0.00 in 30 W/m2
15:33 42.3 °F 35.1 °F 29.79 in NNW 0.7 mph 6 mph 75.5% 0.00 in 32 W/m2
15:39 42.1 °F 35.1 °F 29.79 in NW 1.1 mph 6 mph 76% 0.00 in 33 W/m2
15:44 42 °F 35.1 °F 29.79 in NW 1.1 mph 6 mph 76.3% 0.00 in 25 W/m2
15:49 41.9 °F 35.2 °F 29.79 in NNW 1.7 mph 6 mph 77% 0.00 in 19 W/m2
15:54 41.7 °F 35 °F 29.79 in NW 2.1 mph 7 mph 77% 0.00 in 18 W/m2
15:59 41.5 °F 35.1 °F 29.79 in NW 0.8 mph 7 mph 77.9% 0.00 in 16 W/m2
16:00 41.4 °F 35.1 °F 29.79 in Calm   7 mph 78% 0.00 in 14 W/m2
16:09 41.3 °F 35 °F 29.79 in Calm   2 mph 78% 0.00 in 12 W/m2
16:14 41.2 °F 35 °F 29.79 in NW 0.2 mph 3 mph 78.3% 0.00 in 12 W/m2
16:19 41.1 °F 35.1 °F 29.79 in Calm   3 mph 79% 0.00 in 12 W/m2
16:24 41 °F 35 °F 29.79 in NW 1.1 mph 6 mph 79% 0.00 in 7 W/m2
16:29 41 °F 35.2 °F 29.79 in NW 1.2 mph 6 mph 79.8% 0.00 in 0 W/m2
16:34 40.9 °F 35.2 °F 29.79 in NW 1.2 mph 6 mph 80% 0.00 in 0 W/m2
16:39 40.8 °F 35.4 °F 29.79 in NW 1.4 mph 6 mph 81% 0.00 in 5 W/m2
16:44 40.7 °F 35.4 °F 29.79 in NW 0.3 mph 6 mph 81.3% 0.00 in 5 W/m2
16:49 40.6 °F 35.6 °F 29.79 in NW 0.7 mph 6 mph 82% 0.00 in 0 W/m2
16:54 40.4 °F 35.4 °F 29.79 in NE 1.4 mph 6 mph 82% 0.00 in 0 W/m2
16:59 40.2 °F 35.3 °F 29.78 in NNE 0.9 mph 6 mph 82.6% 0.00 in 0 W/m2
17:04 40 °F 35.2 °F 29.78 in NE 1.5 mph 6 mph 83% 0.00 in 0 W/m2
17:09 39.7 °F 35.1 °F 29.79 in NE 0.1 mph 4 mph 83.5% 0.00 in 0 W/m2
17:14 39.5 °F 35.1 °F 29.79 in NNE 0.7 mph 4 mph 84% 0.00 in 0 W/m2
17:18 39.3 °F 34.9 °F 29.80 in NNE 1.1 mph 4 mph 84.1% 0.00 in 0 W/m2
17:30 38.8 °F 35 °F 29.80 in NE 1 mph 4 mph 86% 0.00 in 0 W/m2
18:00 38.2 °F 35 °F 29.81 in Calm   5 mph 88% 0.00 in 0 W/m2
18:30 37.8 °F 34.9 °F 29.81 in Calm     89% 0.00 in 0 W/m2
19:00 37.7 °F 35 °F 29.83 in NNE 1 mph 5 mph 90% 0.00 in 0 W/m2
19:30 37.6 °F 34.9 °F 29.84 in Calm   4 mph 90% 0.00 in 0 W/m2
20:04 37.6 °F 34.9 °F 29.84 in Calm   4 mph 90% 0.00 in 0 W/m2
20:09 37.6 °F 34.9 °F 29.85 in NNE 0.4 mph 3 mph 90% 0.00 in 0 W/m2
20:14 37.6 °F 34.9 °F 29.85 in Calm   3 mph 90% 0.00 in 0 W/m2
20:19 37.6 °F 34.9 °F 29.85 in Calm   3 mph 90% 0.00 in 0 W/m2
20:24 37.6 °F 34.9 °F 29.85 in Calm   3 mph 90% 0.00 in 0 W/m2
20:29 37.6 °F 34.9 °F 29.85 in Calm   3 mph 90% 0.00 in 0 W/m2
20:34 37.6 °F 34.9 °F 29.85 in Calm   3 mph 90% 0.00 in 0 W/m2
20:39 37.6 °F 35 °F 29.85 in Calm     90% 0.00 in 0 W/m2
20:44 37.7 °F 35 °F 29.85 in Calm     90% 0.00 in 0 W/m2
20:49 37.8 °F 35.1 °F 29.86 in Calm     90% 0.00 in 0 W/m2
20:54 37.9 °F 35.2 °F 29.85 in Calm     90% 0.00 in 0 W/m2
20:59 38 °F 35.3 °F 29.85 in Calm     90% 0.00 in 0 W/m2
21:04 38 °F 35.2 °F 29.85 in Calm     89.6% 0.00 in 0 W/m2
21:09 38 °F 35.1 °F 29.86 in Calm     89% 0.00 in 0 W/m2
21:14 38 °F 35 °F 29.86 in Calm     89% 0.00 in 0 W/m2
21:19 37.9 °F 35 °F 29.86 in Calm     89% 0.00 in 0 W/m2
21:24 37.9 °F 35 °F 29.86 in Calm     89% 0.00 in 0 W/m2
21:29 37.8 °F 34.9 °F 29.86 in NNE 0.3 mph 4 mph 89% 0.00 in 0 W/m2
21:34 37.8 °F 34.8 °F 29.86 in NNE 0.2 mph 4 mph 89% 0.00 in 0 W/m2
21:44 37.7 °F 34.7 °F 29.87 in NE 0.3 mph 5 mph 89% 0.00 in 0 W/m2
21:49 37.6 °F 34.7 °F 29.87 in Calm   5 mph 89% 0.00 in 0 W/m2
21:54 37.6 °F 34.8 °F 29.87 in NE 0.1 mph 5 mph 89.6% 0.00 in 0 W/m2
21:59 37.5 °F 34.7 °F 29.87 in NE 0.2 mph 5 mph 89.5% 0.00 in 0 W/m2
22:04 37.5 °F 34.7 °F 29.87 in NNE 0.1 mph 5 mph 89.4% 0.00 in 0 W/m2
22:09 37.5 °F 34.8 °F 29.87 in NNE 0.3 mph 4 mph 90% 0.00 in 0 W/m2
22:14 37.4 °F 34.8 °F 29.87 in NNE 1 mph 4 mph 90% 0.00 in 0 W/m2
22:19 37.4 °F 34.7 °F 29.88 in NNE 0.4 mph 4 mph 90% 0.00 in 0 W/m2
22:24 37.4 °F 34.7 °F 29.88 in NNE 0.5 mph 4 mph 90% 0.00 in 0 W/m2
22:29 37.4 °F 34.7 °F 29.88 in NNE 0.5 mph 4 mph 90% 0.00 in 0 W/m2
22:34 37.4 °F 34.7 °F 29.88 in NNE 0.7 mph 4 mph 90% 0.00 in 0 W/m2
22:39 37.3 °F 34.6 °F 29.88 in Calm   3 mph 90% 0.00 in 0 W/m2
22:44 37.3 °F 34.6 °F 29.88 in NNE 0.3 mph 3 mph 90% 0.00 in 0 W/m2
22:49 37.3 °F 34.6 °F 29.88 in NNE 1.3 mph 4 mph 90% 0.00 in 0 W/m2
22:54 37.3 °F 34.6 °F 29.88 in NNE 1.2 mph 4 mph 90% 0.00 in 0 W/m2
22:59 37.3 °F 34.6 °F 29.89 in NNE 0.7 mph 4 mph 90% 0.00 in 0 W/m2
23:04 37.3 °F 34.6 °F 29.88 in Calm     90% 0.00 in 0 W/m2
23:09 37.3 °F 34.6 °F 29.88 in Calm     90% 0.00 in 0 W/m2
23:14 37.3 °F 34.6 °F 29.88 in Calm   1 mph 90% 0.00 in 0 W/m2
23:19 37.3 °F 34.6 °F 29.88 in NNW 1.8 mph 9 mph 90% 0.00 in 0 W/m2
23:24 37.3 °F 34.6 °F 29.89 in NNW 0.1 mph 9 mph 90% 0.00 in 0 W/m2
23:29 37.3 °F 34.7 °F 29.89 in NNW 1.3 mph 9 mph 90% 0.00 in 0 W/m2
23:34 37.3 °F 34.6 °F 29.89 in NNW 2.2 mph 9 mph 90% 0.00 in 0 W/m2
23:39 37.3 °F 34.7 °F 29.89 in NNW 1.5 mph 5 mph 90% 0.00 in 0 W/m2
23:44 37.3 °F 34.7 °F 29.89 in NNW 1 mph 5 mph 90% 0.00 in 0 W/m2
23:49 37.3 °F 34.6 °F 29.89 in NNW 0.4 mph 5 mph 90% 0.00 in 0 W/m2
23:54 37.3 °F 34.6 °F 29.89 in NNW 0.7 mph 5 mph 90% 0.00 in 0 W/m2
23:59 37.3 °F 34.7 °F 29.89 in NNW 0.9 mph 5 mph 90% 0.00 in 0 W/m2
Hartford County Weather
Compliments of Weather Underground - 4 mb